createdAt,value
2018-03-27T00:02:23.896Z,96.00
2018-03-27T00:04:52.108Z,96.10
2018-03-27T00:07:21.189Z,96.60
2018-03-27T00:09:49.390Z,96.30
2018-03-27T00:12:18.391Z,96.30
2018-03-27T00:14:46.673Z,96.30
2018-03-27T00:17:14.890Z,96.30
2018-03-27T00:19:43.084Z,96.60
2018-03-27T00:22:11.312Z,96.60
2018-03-27T00:24:42.425Z,96.50
2018-03-27T00:27:10.976Z,96.50
2018-03-27T00:29:51.330Z,96.40
2018-03-27T00:32:31.224Z,97.00
2018-03-27T00:35:11.375Z,97.10
2018-03-27T00:37:52.036Z,96.70
2018-03-27T00:40:32.104Z,96.70
2018-03-27T00:43:01.136Z,96.80
2018-03-27T00:45:29.338Z,96.80
2018-03-27T00:47:57.577Z,97.10
2018-03-27T00:50:25.802Z,96.90
2018-03-27T00:52:54.057Z,97.00
2018-03-27T00:55:22.744Z,97.00
2018-03-27T00:57:50.924Z,97.00
2018-03-27T01:00:19.144Z,96.90
2018-03-27T01:02:47.417Z,96.60
2018-03-27T01:05:15.633Z,96.40
2018-03-27T01:07:43.821Z,96.20
2018-03-27T01:10:12.076Z,96.20
2018-03-27T01:12:40.422Z,96.00
2018-03-27T01:15:08.655Z,96.00
2018-03-27T01:17:36.836Z,96.00
2018-03-27T01:20:05.805Z,95.70
2018-03-27T01:22:34.050Z,95.80
2018-03-27T01:25:02.285Z,95.80
2018-03-27T01:27:31.257Z,96.00
2018-03-27T01:29:59.472Z,96.00
2018-03-27T01:32:27.697Z,96.10
2018-03-27T01:34:55.902Z,96.00
2018-03-27T01:37:24.876Z,96.70
2018-03-27T01:39:53.136Z,96.40
2018-03-27T01:42:21.412Z,96.60
2018-03-27T01:44:49.640Z,96.60
2018-03-27T01:47:17.860Z,96.70
2018-03-27T01:49:46.110Z,96.70
2018-03-27T01:52:14.318Z,97.00
2018-03-27T01:54:43.875Z,97.00
2018-03-27T01:57:12.118Z,97.10
2018-03-27T01:59:40.369Z,97.10
2018-03-27T02:02:08.598Z,97.10
2018-03-27T02:04:36.804Z,97.20
2018-03-27T02:07:04.997Z,97.30
2018-03-27T02:09:33.239Z,97.10
2018-03-27T02:12:07.113Z,97.30
2018-03-27T02:14:41.904Z,97.40
2018-03-27T02:17:15.771Z,97.40
2018-03-27T02:19:49.697Z,97.50
2018-03-27T02:22:17.970Z,97.50
2018-03-27T02:24:46.207Z,97.40
2018-03-27T02:27:15.244Z,97.50
2018-03-27T02:29:43.540Z,97.50
2018-03-27T02:32:11.746Z,97.50
2018-03-27T02:34:40.070Z,97.50
2018-03-27T02:37:08.254Z,97.20
2018-03-27T02:39:36.453Z,97.30
2018-03-27T02:42:04.730Z,97.30
2018-03-27T02:44:32.925Z,97.30
2018-03-27T02:47:01.242Z,97.30
2018-03-27T02:49:29.633Z,97.10
2018-03-27T02:51:57.826Z,97.20
2018-03-27T02:54:26.800Z,97.60
2018-03-27T02:56:56.332Z,97.60
2018-03-27T02:59:24.692Z,97.50
2018-03-27T03:01:53.629Z,97.70
2018-03-27T03:04:22.778Z,97.70
2018-03-27T03:06:50.981Z,97.70
2018-03-27T03:09:19.175Z,97.60
2018-03-27T03:11:48.165Z,97.50
2018-03-27T03:14:16.404Z,97.40
2018-03-27T03:16:44.596Z,97.50
2018-03-27T03:19:13.772Z,97.60
2018-03-27T03:21:42.048Z,97.50
2018-03-27T03:24:11.054Z,97.50
2018-03-27T03:26:39.261Z,97.40
2018-03-27T03:29:08.258Z,97.40
2018-03-27T03:31:37.214Z,97.40
2018-03-27T03:34:05.459Z,97.40
2018-03-27T03:36:33.731Z,97.60
2018-03-27T03:39:02.005Z,97.80
2018-03-27T03:41:30.292Z,97.70
2018-03-27T03:43:58.489Z,97.80
2018-03-27T03:46:26.729Z,97.80
2018-03-27T03:48:55.106Z,97.90
2018-03-27T03:51:23.322Z,98.00
2018-03-27T03:53:51.592Z,98.00
2018-03-27T03:56:20.075Z,98.00
2018-03-27T03:58:48.484Z,97.90
2018-03-27T04:01:16.800Z,97.90
2018-03-27T04:03:45.234Z,98.00
2018-03-27T04:06:13.433Z,98.10
2018-03-27T04:08:42.443Z,98.00
2018-03-27T04:11:10.717Z,98.00
2018-03-27T04:13:38.931Z,98.00
2018-03-27T04:16:08.224Z,98.10
2018-03-27T04:18:36.455Z,98.00
2018-03-27T04:21:05.419Z,98.10
2018-03-27T04:23:33.637Z,98.10
2018-03-27T04:26:01.956Z,98.00
2018-03-27T04:28:30.140Z,97.90
2018-03-27T04:30:58.354Z,97.80
2018-03-27T04:33:27.417Z,97.50
2018-03-27T04:35:56.038Z,97.50
2018-03-27T04:38:25.029Z,97.40
2018-03-27T04:40:54.111Z,97.60
2018-03-27T04:43:22.308Z,97.50
2018-03-27T04:45:50.512Z,97.80
2018-03-27T04:48:18.792Z,97.80
2018-03-27T04:50:47.080Z,97.90
2018-03-27T04:53:15.345Z,97.80
2018-03-27T04:55:43.592Z,97.80
2018-03-27T04:58:11.847Z,97.80
2018-03-27T05:00:40.954Z,98.00
2018-03-27T05:03:09.972Z,98.00
2018-03-27T05:05:38.224Z,98.00
2018-03-27T05:08:06.425Z,98.20
2018-03-27T05:10:34.693Z,98.50
2018-03-27T05:13:03.039Z,98.30
2018-03-27T05:15:32.026Z,98.20
2018-03-27T05:18:00.266Z,98.20
2018-03-27T05:20:28.481Z,98.20
2018-03-27T05:22:57.561Z,98.10
2018-03-27T05:25:25.765Z,98.10
2018-03-27T05:27:54.007Z,98.10
2018-03-27T05:30:22.302Z,98.20
2018-03-27T05:32:51.373Z,98.40
2018-03-27T05:35:19.558Z,98.40
2018-03-27T05:37:47.812Z,98.50
2018-03-27T05:40:16.069Z,98.40
2018-03-27T05:42:44.286Z,98.50
2018-03-27T05:45:12.703Z,98.40
2018-03-27T05:47:40.943Z,98.30
2018-03-27T05:50:09.935Z,98.40
2018-03-27T05:52:38.145Z,98.40
2018-03-27T05:55:07.193Z,98.20
2018-03-27T05:57:35.372Z,98.10
2018-03-27T06:00:03.612Z,98.10
2018-03-27T06:05:09.549Z,98.20
2018-03-27T06:07:37.749Z,98.20
2018-03-27T06:10:06.717Z,98.20
2018-03-27T06:12:35.825Z,98.10
2018-03-27T06:15:04.081Z,98.10
2018-03-27T06:17:33.126Z,98.20
2018-03-27T06:20:01.379Z,98.20
2018-03-27T06:22:29.744Z,98.20
2018-03-27T06:24:58.713Z,98.10
2018-03-27T06:27:27.024Z,98.10
2018-03-27T06:29:55.197Z,97.90
2018-03-27T06:32:23.441Z,98.00
2018-03-27T06:34:51.645Z,98.20
2018-03-27T06:37:19.950Z,98.20
2018-03-27T06:39:48.446Z,98.10
2018-03-27T06:42:16.689Z,98.20
2018-03-27T06:44:45.097Z,98.30
2018-03-27T06:47:14.251Z,98.30
2018-03-27T06:49:42.495Z,98.20
2018-03-27T06:52:10.860Z,98.40
2018-03-27T06:54:39.154Z,98.20
2018-03-27T06:57:07.349Z,98.10
2018-03-27T06:59:36.369Z,97.50
2018-03-27T07:02:04.596Z,97.50
2018-03-27T07:04:32.965Z,97.50
2018-03-27T07:07:01.218Z,97.80
2018-03-27T07:09:29.452Z,97.40
2018-03-27T07:11:57.649Z,97.30
2018-03-27T07:14:26.649Z,97.00
2018-03-27T07:16:55.582Z,96.70
2018-03-27T07:19:23.804Z,96.60
2018-03-27T07:21:52.160Z,96.40
2018-03-27T07:24:21.203Z,95.50
2018-03-27T07:26:49.460Z,95.50
2018-03-27T07:29:17.655Z,95.10
2018-03-27T07:31:45.869Z,95.10
2018-03-27T07:34:14.141Z,95.10
2018-03-27T07:36:42.492Z,94.80
2018-03-27T07:39:10.701Z,94.60
2018-03-27T07:41:38.975Z,94.50
2018-03-27T07:44:07.233Z,94.10
2018-03-27T07:46:35.513Z,94.00
2018-03-27T07:49:03.714Z,94.10
2018-03-27T07:51:31.941Z,93.90
2018-03-27T07:54:00.229Z,93.60
2018-03-27T07:56:28.423Z,93.40
2018-03-27T07:58:56.649Z,93.10
2018-03-27T08:01:24.843Z,93.10
2018-03-27T08:03:53.048Z,93.10
2018-03-27T08:06:21.476Z,93.20
2018-03-27T08:08:49.794Z,93.00
2018-03-27T08:11:18.085Z,93.20
2018-03-27T08:13:46.301Z,93.10
2018-03-27T08:16:14.496Z,93.30
2018-03-27T08:18:42.705Z,92.80
2018-03-27T08:21:10.931Z,92.20
2018-03-27T08:23:39.133Z,92.20
2018-03-27T08:26:07.333Z,91.80
2018-03-27T08:28:35.621Z,91.60
2018-03-27T08:31:03.832Z,91.40
2018-03-27T08:33:32.034Z,90.90
2018-03-27T08:36:01.041Z,90.40
2018-03-27T08:38:29.505Z,90.40
2018-03-27T08:40:57.762Z,90.20
2018-03-27T08:43:26.079Z,90.30
2018-03-27T08:45:54.404Z,90.40
2018-03-27T08:48:22.584Z,89.70
2018-03-27T08:50:50.856Z,90.70
2018-03-27T08:53:19.072Z,88.60
2018-03-27T08:55:47.352Z,89.20
2018-03-27T08:58:15.586Z,87.20
2018-03-27T09:00:43.915Z,85.90
2018-03-27T09:03:12.076Z,79.70
2018-03-27T09:05:41.569Z,78.80
2018-03-27T09:08:10.023Z,80.00
2018-03-27T09:10:38.387Z,82.20
2018-03-27T09:13:07.483Z,82.00
2018-03-27T09:15:36.451Z,77.60
2018-03-27T09:18:04.677Z,77.70
2018-03-27T09:20:34.189Z,76.60
2018-03-27T09:23:02.432Z,78.00
2018-03-27T09:25:31.426Z,75.30
2018-03-27T09:28:01.598Z,70.50
2018-03-27T09:30:29.828Z,70.40
2018-03-27T09:32:59.330Z,66.00
2018-03-27T09:35:28.404Z,66.30
2018-03-27T09:37:56.621Z,66.30
2018-03-27T09:40:24.826Z,66.50
2018-03-27T09:42:53.057Z,63.80
2018-03-27T09:45:21.339Z,61.50
2018-03-27T09:47:49.537Z,64.90
2018-03-27T09:50:17.846Z,70.40
2018-03-27T09:52:46.057Z,73.40
2018-03-27T09:55:14.260Z,71.00
2018-03-27T09:57:42.681Z,71.60
2018-03-27T10:00:10.869Z,72.10
2018-03-27T10:02:39.121Z,73.00
2018-03-27T10:05:07.380Z,75.40
2018-03-27T10:07:35.616Z,74.50
2018-03-27T10:10:04.638Z,76.80
2018-03-27T10:12:32.876Z,76.10
2018-03-27T10:15:01.873Z,78.00
2018-03-27T10:17:30.844Z,76.30
2018-03-27T10:19:59.208Z,76.30
2018-03-27T10:22:27.456Z,76.80
2018-03-27T10:24:56.296Z,75.80
2018-03-27T10:27:25.292Z,78.50
2018-03-27T10:29:54.447Z,78.00
2018-03-27T10:32:22.697Z,78.00
2018-03-27T10:34:51.038Z,77.70
2018-03-27T10:37:20.017Z,73.80
2018-03-27T10:39:48.255Z,73.80
2018-03-27T10:42:16.521Z,76.00
2018-03-27T10:44:44.747Z,74.70
2018-03-27T10:47:12.983Z,71.70
2018-03-27T10:49:41.232Z,67.80
2018-03-27T10:52:09.448Z,64.40
2018-03-27T10:54:37.653Z,59.10
2018-03-27T10:57:06.686Z,56.00
2018-03-27T10:59:34.935Z,56.00
2018-03-27T11:02:03.936Z,56.40
2018-03-27T11:04:32.349Z,56.40
2018-03-27T11:07:00.577Z,53.90
2018-03-27T11:09:29.581Z,58.10
2018-03-27T11:11:57.962Z,58.00
2018-03-27T11:14:27.007Z,61.30
2018-03-27T11:16:55.254Z,61.30
2018-03-27T11:19:24.890Z,64.40
2018-03-27T11:21:53.133Z,64.40
2018-03-27T11:24:21.383Z,65.40
2018-03-27T11:26:50.467Z,68.70
2018-03-27T11:29:18.834Z,68.70
2018-03-27T11:31:47.336Z,67.70
2018-03-27T11:34:16.472Z,63.80
2018-03-27T11:36:44.734Z,63.60
2018-03-27T11:39:13.056Z,57.40
2018-03-27T11:41:41.389Z,59.10
2018-03-27T11:44:09.655Z,58.10
2018-03-27T11:46:38.912Z,53.30
2018-03-27T11:49:07.196Z,52.60
2018-03-27T11:51:35.404Z,51.00
2018-03-27T11:54:04.382Z,51.50
2018-03-27T11:56:32.648Z,52.00
2018-03-27T11:59:00.917Z,48.50
2018-03-27T12:01:29.907Z,42.10
2018-03-27T12:03:58.184Z,42.10
2018-03-27T12:06:26.395Z,42.10
2018-03-27T12:08:55.474Z,40.60
2018-03-27T12:11:23.918Z,40.70
2018-03-27T12:13:52.180Z,40.10
2018-03-27T12:16:20.393Z,39.30
2018-03-27T12:18:48.697Z,43.10
2018-03-27T12:21:17.025Z,44.90
2018-03-27T12:23:45.256Z,45.50
2018-03-27T12:26:13.506Z,46.20
2018-03-27T12:28:41.702Z,45.90
2018-03-27T12:31:09.965Z,49.10
2018-03-27T12:33:38.199Z,50.30
2018-03-27T12:36:06.499Z,50.80
2018-03-27T12:38:34.686Z,51.80
2018-03-27T12:41:02.910Z,53.00
2018-03-27T12:43:31.885Z,57.40
2018-03-27T12:46:01.028Z,61.80
2018-03-27T12:48:29.316Z,61.80
2018-03-27T12:50:57.568Z,60.50
2018-03-27T12:53:25.877Z,63.60
2018-03-27T12:55:54.136Z,64.20
2018-03-27T12:58:22.336Z,65.30
2018-03-27T13:00:50.597Z,64.00
2018-03-27T13:03:18.804Z,62.50
2018-03-27T13:05:47.272Z,59.00
2018-03-27T13:08:15.510Z,56.20
2018-03-27T13:10:43.728Z,54.30
2018-03-27T13:13:11.990Z,50.90
2018-03-27T13:15:40.242Z,47.60
2018-03-27T13:18:08.544Z,50.70
2018-03-27T13:20:36.830Z,52.80
2018-03-27T13:23:04.974Z,54.70
2018-03-27T13:25:33.236Z,54.30
2018-03-27T13:28:01.505Z,52.50
2018-03-27T13:30:29.749Z,51.10
2018-03-27T13:32:58.171Z,49.40
2018-03-27T13:35:26.457Z,49.30
2018-03-27T13:37:54.723Z,49.80
2018-03-27T13:40:23.036Z,48.80
2018-03-27T13:42:51.264Z,46.60
2018-03-27T13:45:19.462Z,42.20
2018-03-27T13:47:47.703Z,44.70
2018-03-27T13:50:16.691Z,47.60
2018-03-27T13:52:45.653Z,48.00
2018-03-27T13:55:13.882Z,48.10
2018-03-27T13:57:42.080Z,46.80
2018-03-27T14:00:10.310Z,45.20
2018-03-27T14:02:39.355Z,49.70
2018-03-27T14:05:07.585Z,49.60
2018-03-27T14:07:36.617Z,56.10
2018-03-27T14:10:05.062Z,56.00
2018-03-27T14:12:33.403Z,58.50
2018-03-27T14:15:01.985Z,60.50
2018-03-27T14:17:30.185Z,62.50
2018-03-27T14:19:59.235Z,77.70
2018-03-27T14:22:27.402Z,77.10
2018-03-27T14:24:55.684Z,85.00
2018-03-27T14:27:24.080Z,84.80
2018-03-27T14:29:52.297Z,89.00
2018-03-27T14:32:20.511Z,89.80
2018-03-27T14:34:48.725Z,88.10
2018-03-27T14:37:16.907Z,84.10
2018-03-27T14:39:46.105Z,75.80
2018-03-27T14:42:14.350Z,75.70
2018-03-27T14:44:42.609Z,69.70
2018-03-27T14:47:10.881Z,68.20
2018-03-27T14:49:39.098Z,64.00
2018-03-27T14:52:07.381Z,68.00
2018-03-27T14:54:36.528Z,72.50
2018-03-27T14:57:04.892Z,72.40
2018-03-27T14:59:33.902Z,72.60
2018-03-27T15:02:02.218Z,72.50
2018-03-27T15:04:30.508Z,71.50
2018-03-27T15:06:59.510Z,72.30
2018-03-27T15:09:28.947Z,72.20
2018-03-27T15:11:57.199Z,71.60
2018-03-27T15:14:26.196Z,73.90
2018-03-27T15:16:54.452Z,73.80
2018-03-27T15:19:23.431Z,74.90
2018-03-27T15:21:51.657Z,74.80
2018-03-27T15:24:19.905Z,70.70
2018-03-27T15:26:48.113Z,72.40
2018-03-27T15:29:16.323Z,70.10
2018-03-27T15:31:44.626Z,67.90
2018-03-27T15:34:13.596Z,74.20
2018-03-27T15:36:41.806Z,74.20
2018-03-27T15:39:10.044Z,69.10
2018-03-27T15:41:38.279Z,68.90
2018-03-27T15:44:06.500Z,65.70
2018-03-27T15:46:34.718Z,66.80
2018-03-27T15:49:02.920Z,70.10
2018-03-27T15:51:31.178Z,70.10
2018-03-27T15:53:59.431Z,75.50
2018-03-27T15:56:27.629Z,81.70
2018-03-27T15:58:55.828Z,79.20
2018-03-27T16:01:24.134Z,79.80
2018-03-27T16:03:53.137Z,75.30
2018-03-27T16:06:21.312Z,75.40
2018-03-27T16:08:50.381Z,75.60
2018-03-27T16:11:18.570Z,75.60
2018-03-27T16:13:46.777Z,78.90
2018-03-27T16:16:15.049Z,74.70
2018-03-27T16:18:43.255Z,74.60
2018-03-27T16:21:11.457Z,78.10
2018-03-27T16:23:40.679Z,77.30
2018-03-27T16:26:09.648Z,78.00
2018-03-27T16:28:37.853Z,78.10
2018-03-27T16:31:06.920Z,77.60
2018-03-27T16:33:35.117Z,77.60
2018-03-27T16:36:04.131Z,76.50
2018-03-27T16:38:32.357Z,76.40
2018-03-27T16:41:00.662Z,76.80
2018-03-27T16:43:29.625Z,75.90
2018-03-27T16:45:57.842Z,75.20
2018-03-27T16:48:26.937Z,77.30
2018-03-27T16:50:55.984Z,77.10
2018-03-27T16:53:24.291Z,77.10
2018-03-27T16:55:52.493Z,77.00
2018-03-27T16:58:20.708Z,77.40
2018-03-27T17:00:49.017Z,78.10
2018-03-27T17:03:17.227Z,77.80
2018-03-27T17:05:45.474Z,77.90
2018-03-27T17:08:14.527Z,79.20
2018-03-27T17:10:42.741Z,79.20
2018-03-27T17:13:10.925Z,78.50
2018-03-27T17:15:39.923Z,80.00
2018-03-27T17:18:09.129Z,80.50
2018-03-27T17:20:37.326Z,80.50
2018-03-27T17:23:05.828Z,80.30
2018-03-27T17:25:34.029Z,80.30
2018-03-27T17:28:02.225Z,80.60
2018-03-27T17:30:31.208Z,81.60
2018-03-27T17:33:00.213Z,81.60
2018-03-27T17:35:29.185Z,81.00
2018-03-27T17:37:57.592Z,80.90
2018-03-27T17:40:25.832Z,79.50
2018-03-27T17:42:54.127Z,81.10
2018-03-27T17:45:22.440Z,80.00
2018-03-27T17:47:50.662Z,81.10
2018-03-27T17:50:18.887Z,81.50
2018-03-27T17:52:47.906Z,81.20
2018-03-27T17:55:16.105Z,81.20
2018-03-27T17:57:44.318Z,81.50
2018-03-27T18:00:12.577Z,82.00
2018-03-27T18:02:41.547Z,83.60
2018-03-27T18:05:09.916Z,83.40
2018-03-27T18:07:38.528Z,83.20
2018-03-27T18:10:07.643Z,83.60
2018-03-27T18:12:36.224Z,83.60
2018-03-27T18:15:05.210Z,84.80
2018-03-27T18:17:34.180Z,86.20
2018-03-27T18:20:03.264Z,86.30
2018-03-27T18:22:31.732Z,85.80
2018-03-27T18:25:00.024Z,85.60
2018-03-27T18:27:28.214Z,86.90
2018-03-27T18:29:57.225Z,86.10
2018-03-27T18:32:26.492Z,86.50
2018-03-27T18:34:54.678Z,86.50
2018-03-27T18:37:22.936Z,86.90
2018-03-27T18:39:51.081Z,87.50
2018-03-27T18:42:19.312Z,89.00
2018-03-27T18:44:47.524Z,88.10
2018-03-27T18:47:15.729Z,88.50
2018-03-27T18:49:43.933Z,88.60
2018-03-27T18:52:12.213Z,88.80
2018-03-27T18:54:41.171Z,89.20
2018-03-27T18:57:09.760Z,88.70
2018-03-27T18:59:38.036Z,87.80
2018-03-27T19:02:06.226Z,86.90
2018-03-27T19:04:34.474Z,87.30
2018-03-27T19:07:02.703Z,87.10
2018-03-27T19:09:31.668Z,87.30
2018-03-27T19:11:59.954Z,87.30
2018-03-27T19:14:28.948Z,88.40
2018-03-27T19:16:57.163Z,88.40
2018-03-27T19:19:25.366Z,86.90
2018-03-27T19:21:53.621Z,86.60
2018-03-27T19:24:21.810Z,85.80
2018-03-27T19:26:49.998Z,85.80
2018-03-27T19:29:18.236Z,86.00
2018-03-27T19:31:46.436Z,86.40
2018-03-27T19:34:14.638Z,85.70
2018-03-27T19:36:42.905Z,87.00
2018-03-27T19:39:11.113Z,87.40
2018-03-27T19:41:40.073Z,88.90
2018-03-27T19:44:08.367Z,88.30
2018-03-27T19:46:36.670Z,88.20
2018-03-27T19:49:05.633Z,88.70
2018-03-27T19:51:33.864Z,87.90
2018-03-27T19:54:02.086Z,89.80
2018-03-27T19:56:30.331Z,90.50
2018-03-27T19:58:58.586Z,90.00
2018-03-27T20:01:26.773Z,90.30
2018-03-27T20:03:55.033Z,90.30
2018-03-27T20:06:23.323Z,90.20
2018-03-27T20:08:51.531Z,89.20
2018-03-27T20:11:19.819Z,90.10
2018-03-27T20:13:48.138Z,89.10
2018-03-27T20:16:16.339Z,90.30
2018-03-27T20:18:44.565Z,90.70
2018-03-27T20:21:13.629Z,88.50
2018-03-27T20:23:41.857Z,88.50
2018-03-27T20:26:10.234Z,88.80
2018-03-27T20:28:39.682Z,88.90
2018-03-27T20:31:07.883Z,89.70
2018-03-27T20:33:36.105Z,90.00
2018-03-27T20:36:04.323Z,90.40
2018-03-27T20:38:32.544Z,87.70
2018-03-27T20:41:00.767Z,87.00
2018-03-27T20:43:29.062Z,87.10
2018-03-27T20:45:58.101Z,88.00
2018-03-27T20:48:26.311Z,88.00
2018-03-27T20:50:54.533Z,87.90
2018-03-27T20:53:23.018Z,88.00
2018-03-27T20:55:51.260Z,88.20
2018-03-27T20:58:19.513Z,88.60
2018-03-27T21:00:47.713Z,88.30
2018-03-27T21:03:16.748Z,88.60
2018-03-27T21:05:46.237Z,88.70
2018-03-27T21:08:14.437Z,88.90
2018-03-27T21:10:42.645Z,89.90
2018-03-27T21:13:11.628Z,90.80
2018-03-27T21:15:39.821Z,89.40
2018-03-27T21:18:08.011Z,89.50
2018-03-27T21:20:37.005Z,90.10
2018-03-27T21:23:05.965Z,89.30
2018-03-27T21:25:34.160Z,89.30
2018-03-27T21:28:03.473Z,88.80
2018-03-27T21:30:32.644Z,87.60
2018-03-27T21:35:35.376Z,86.60
2018-03-27T21:38:03.623Z,88.30
2018-03-27T21:40:31.809Z,86.90
2018-03-27T21:43:00.813Z,87.30
2018-03-27T21:45:29.817Z,87.70
2018-03-27T21:47:58.020Z,87.60
2018-03-27T21:50:26.358Z,87.10
2018-03-27T21:52:55.372Z,87.30
2018-03-27T21:55:24.586Z,87.50
2018-03-27T21:57:53.766Z,88.10
2018-03-27T22:00:21.993Z,88.10
2018-03-27T22:02:50.208Z,87.90
2018-03-27T22:05:19.772Z,87.70
2018-03-27T22:07:48.052Z,87.60
2018-03-27T22:10:16.391Z,87.90
2018-03-27T22:12:44.680Z,89.30
2018-03-27T22:15:12.886Z,88.40
2018-03-27T22:17:41.077Z,88.80
2018-03-27T22:20:10.049Z,89.30
2018-03-27T22:22:38.275Z,89.20
2018-03-27T22:25:06.469Z,88.90
2018-03-27T22:27:34.716Z,89.50
2018-03-27T22:30:02.903Z,89.80
2018-03-27T22:32:31.112Z,89.90
2018-03-27T22:34:59.542Z,90.20
2018-03-27T22:37:28.532Z,90.30
2018-03-27T22:39:57.492Z,90.50
2018-03-27T22:42:25.729Z,90.20
2018-03-27T22:44:53.926Z,90.40
2018-03-27T22:47:22.139Z,90.40
2018-03-27T22:49:51.207Z,90.50
2018-03-27T22:52:19.417Z,90.50
2018-03-27T22:54:48.991Z,90.80
2018-03-27T22:57:17.258Z,90.80
2018-03-27T22:59:46.381Z,91.10
2018-03-27T23:02:14.620Z,91.10
2018-03-27T23:04:42.813Z,91.20
2018-03-27T23:07:11.055Z,91.20
2018-03-27T23:09:39.705Z,91.30
2018-03-27T23:12:08.716Z,91.40
2018-03-27T23:14:36.957Z,91.30
2018-03-27T23:17:05.229Z,91.30
2018-03-27T23:19:33.541Z,91.20
2018-03-27T23:22:01.750Z,91.30
2018-03-27T23:24:30.141Z,91.40
2018-03-27T23:26:58.826Z,91.70
2018-03-27T23:29:27.042Z,91.80
2018-03-27T23:31:55.997Z,92.00
2018-03-27T23:34:24.252Z,91.90
2018-03-27T23:36:52.501Z,92.20
2018-03-27T23:39:21.457Z,92.80
2018-03-27T23:41:49.791Z,92.80
2018-03-27T23:44:17.979Z,92.90
2018-03-27T23:46:46.323Z,93.10
2018-03-27T23:49:14.773Z,93.40
2018-03-27T23:51:42.993Z,93.60
2018-03-27T23:54:11.201Z,93.90
2018-03-27T23:56:39.502Z,94.10
2018-03-27T23:59:08.561Z,94.30
